This is the latest recevied weather packets stored in our database for station/object SQ9NFI-4. If no packets are shown the sender has not sent any weather packets the latest 10 day(s).
| Time | Temp. | Humidity | Pressure | Rain* | Wind** | Luminosity | Snow |
|---|---|---|---|---|---|---|---|
| 1777888304 | 25.56° C | 28% | 1016.3 hPa | 0 mm | - | 694 W/m² | - |
| 1777888004 | 25.56° C | 27% | 1016.3 hPa | 0 mm | - | 694 W/m² | - |
| 1777887704 | 24.44° C | 28% | 1016.3 hPa | 0 mm | - | 683 W/m² | - |
| 1777887404 | 24.44° C | 27% | 1016.6 hPa | 0 mm | - | 677 W/m² | - |
| 1777887104 | 25.56° C | 29% | 1016.6 hPa | 0 mm | - | 674 W/m² | - |
| 1777886804 | 24.44° C | 28% | 1016.9 hPa | 0 mm | - | 657 W/m² | - |
| 1777886504 | 24.44° C | 27% | 1016.9 hPa | 0 mm | - | 654 W/m² | - |
| 1777886204 | 24.44° C | 27% | 1016.9 hPa | 0 mm | - | 620 W/m² | - |
| 1777885904 | 24.44° C | 27% | 1016.6 hPa | 0 mm | - | 631 W/m² | - |
| 1777885604 | 24.44° C | 28% | 1016.6 hPa | 0 mm | - | 643 W/m² | - |
| 1777885304 | 24.44° C | 28% | 1016.9 hPa | 0 mm | - | 634 W/m² | - |
| 1777885004 | 23.89° C | 27% | 1016.9 hPa | 0 mm | - | 643 W/m² | - |
| 1777884704 | 23.89° C | 26% | 1016.9 hPa | 0 mm | - | 643 W/m² | - |
| 1777884404 | 23.89° C | 27% | 1016.9 hPa | 0 mm | - | 629 W/m² | - |
| 1777884104 | 23.89° C | 29% | 1016.9 hPa | 0 mm | - | 623 W/m² | - |
| 1777883804 | 24.44° C | 29% | 1016.9 hPa | 0 mm | - | 614 W/m² | - |
| 1777883504 | 23.89° C | 29% | 1016.9 hPa | 0 mm | - | 609 W/m² | - |
| 1777883204 | 23.33° C | 28% | 1016.9 hPa | 0 mm | - | 600 W/m² | - |
| 1777882904 | 23.89° C | 31% | 1016.9 hPa | 0 mm | - | 592 W/m² | - |
| 1777882604 | 22.78° C | 29% | 1016.9 hPa | 0 mm | - | 583 W/m² | - |
| 1777882304 | 22.22° C | 28% | 1016.9 hPa | 0 mm | - | 572 W/m² | - |
| 1777882004 | 22.78° C | 29% | 1016.9 hPa | 0 mm | - | 580 W/m² | - |
| 1777881704 | 22.22° C | 28% | 1016.6 hPa | 0 mm | - | 566 W/m² | - |
| 1777881404 | 21.67° C | 28% | 1016.6 hPa | 0 mm | - | 552 W/m² | - |
| 1777881104 | 22.22° C | 31% | 1016.6 hPa | 0 mm | - | 539 W/m² | - |
* Rain latest hour (hover to see other rain measurements)
** Current wind speed in m/s (hover to see current wind gust speed)